To NAV CANADA Home Page Login to a new session Search on AWWS site Feedback and Comments Disclaimer Vers la page française équivalente Tips FAQ What's new on the site To the Forecasts and Observations / NOTAM section To "File a Flight Plan" website Publications and other links Update of the User's profile FIC Telephone Numbers My Weather Data Folder Route Weather Data Regional Weather Data Local Weather Data To the Forecasts and Observations / NOTAM section
Request Generated 08/31/2015 at 21:44:31 UTC . Weather information available at that time is displayed.

METAR/TAF

STEPHENVILLE/NL    

METAR CYJT 312100Z 21010KT 15SM FEW030 BKN050 21/18 A2963 RMK SC1SC6
SLP034 DENSITY ALT 1000FT=
METAR CYJT 312000Z 23017KT 15SM SCT030 BKN100 22/18 A2964 RMK SC4AC3
SLP038 DENSITY ALT 1100FT=
METAR CYJT 311900Z 23012KT 15SM FEW025TCU SCT030 BKN100 22/18 A2966
RMK TCU2SC2AC3 SLP045 DENSITY ALT 1100FT=

TAF CYJT 311738Z 3118/0118 25010KT P6SM BKN030 TEMPO 3118/0102 P6SM
-SHRA BKN020
FM010200 23010G20KT 4SM -SHRA BR OVC010
FM010400 20010G20KT 1SM -RA BR OVC003
FM010800 32008KT 6SM -SHRA BR BKN020
FM011200 24015G25KT P6SM BKN020
RMK NXT FCST BY 010000Z=
Your time UTC time
Weather data provided by Environment Canada and NAV CANADA